sensor_id;sensor_type;location;lat;lon;timestamp;temperature;humidity
4695;DHT22;2361;49.540;8.390;2022-07-18T00:02:17;21.60;51.20
4695;DHT22;2361;49.540;8.390;2022-07-18T00:04:44;21.50;51.30
4695;DHT22;2361;49.540;8.390;2022-07-18T00:07:12;21.40;51.40
4695;DHT22;2361;49.540;8.390;2022-07-18T00:09:39;21.40;51.30
4695;DHT22;2361;49.540;8.390;2022-07-18T00:12:08;21.40;51.40
4695;DHT22;2361;49.540;8.390;2022-07-18T00:14:36;21.30;51.60
4695;DHT22;2361;49.540;8.390;2022-07-18T00:17:05;21.30;51.70
4695;DHT22;2361;49.540;8.390;2022-07-18T00:19:33;21.20;51.90
4695;DHT22;2361;49.540;8.390;2022-07-18T00:22:00;21.30;51.90
4695;DHT22;2361;49.540;8.390;2022-07-18T00:24:28;21.30;51.80
4695;DHT22;2361;49.540;8.390;2022-07-18T00:26:55;21.20;51.80
4695;DHT22;2361;49.540;8.390;2022-07-18T00:29:22;21.20;51.90
4695;DHT22;2361;49.540;8.390;2022-07-18T00:31:49;21.10;52.00
4695;DHT22;2361;49.540;8.390;2022-07-18T00:34:16;21.10;51.90
4695;DHT22;2361;49.540;8.390;2022-07-18T00:36:43;21.10;52.30
4695;DHT22;2361;49.540;8.390;2022-07-18T00:39:10;21.00;52.30
4695;DHT22;2361;49.540;8.390;2022-07-18T00:41:37;21.00;52.30
4695;DHT22;2361;49.540;8.390;2022-07-18T00:44:04;21.00;52.60
4695;DHT22;2361;49.540;8.390;2022-07-18T00:46:31;20.90;52.50
4695;DHT22;2361;49.540;8.390;2022-07-18T00:48:59;20.90;52.60
4695;DHT22;2361;49.540;8.390;2022-07-18T00:51:26;20.80;52.70
4695;DHT22;2361;49.540;8.390;2022-07-18T00:53:53;20.80;52.70
4695;DHT22;2361;49.540;8.390;2022-07-18T00:56:20;20.80;52.80
4695;DHT22;2361;49.540;8.390;2022-07-18T00:58:48;20.70;53.00
4695;DHT22;2361;49.540;8.390;2022-07-18T01:01:15;20.70;53.00
4695;DHT22;2361;49.540;8.390;2022-07-18T01:04:01;20.70;53.10
4695;DHT22;2361;49.540;8.390;2022-07-18T01:06:28;20.60;53.20
4695;DHT22;2361;49.540;8.390;2022-07-18T01:08:57;20.60;53.40
4695;DHT22;2361;49.540;8.390;2022-07-18T01:11:24;20.60;53.40
4695;DHT22;2361;49.540;8.390;2022-07-18T01:13:51;20.50;54.10
4695;DHT22;2361;49.540;8.390;2022-07-18T01:16:18;20.60;53.50
4695;DHT22;2361;49.540;8.390;2022-07-18T01:18:47;20.60;53.50
4695;DHT22;2361;49.540;8.390;2022-07-18T01:21:15;20.60;53.30
4695;DHT22;2361;49.540;8.390;2022-07-18T01:23:43;20.60;53.70
4695;DHT22;2361;49.540;8.390;2022-07-18T01:26:15;20.60;53.40
4695;DHT22;2361;49.540;8.390;2022-07-18T01:28:44;20.60;53.60
4695;DHT22;2361;49.540;8.390;2022-07-18T01:31:11;20.60;53.60
4695;DHT22;2361;49.540;8.390;2022-07-18T01:33:39;20.50;53.80
4695;DHT22;2361;49.540;8.390;2022-07-18T01:36:06;20.50;53.90
4695;DHT22;2361;49.540;8.390;2022-07-18T01:38:35;20.50;54.10
4695;DHT22;2361;49.540;8.390;2022-07-18T01:41:04;20.50;54.30
4695;DHT22;2361;49.540;8.390;2022-07-18T01:43:31;20.50;54.20
4695;DHT22;2361;49.540;8.390;2022-07-18T01:45:59;20.50;54.30
4695;DHT22;2361;49.540;8.390;2022-07-18T01:48:26;20.50;54.30
4695;DHT22;2361;49.540;8.390;2022-07-18T01:50:52;20.50;54.40
4695;DHT22;2361;49.540;8.390;2022-07-18T01:53:19;20.40;54.60
4695;DHT22;2361;49.540;8.390;2022-07-18T01:55:47;20.40;54.70
4695;DHT22;2361;49.540;8.390;2022-07-18T01:58:14;20.30;54.90
4695;DHT22;2361;49.540;8.390;2022-07-18T02:00:41;20.20;55.40
4695;DHT22;2361;49.540;8.390;2022-07-18T02:03:08;20.20;55.40
4695;DHT22;2361;49.540;8.390;2022-07-18T02:05:35;20.10;55.50
4695;DHT22;2361;49.540;8.390;2022-07-18T02:08:02;20.10;55.30
4695;DHT22;2361;49.540;8.390;2022-07-18T02:10:29;20.10;55.30
4695;DHT22;2361;49.540;8.390;2022-07-18T02:12:56;20.00;55.30
4695;DHT22;2361;49.540;8.390;2022-07-18T02:15:23;19.90;55.60
4695;DHT22;2361;49.540;8.390;2022-07-18T02:17:50;19.90;55.80
4695;DHT22;2361;49.540;8.390;2022-07-18T02:20:18;19.90;55.80
4695;DHT22;2361;49.540;8.390;2022-07-18T02:22:45;20.00;55.70
4695;DHT22;2361;49.540;8.390;2022-07-18T02:25:12;20.10;55.60
4695;DHT22;2361;49.540;8.390;2022-07-18T02:27:39;20.10;55.50
4695;DHT22;2361;49.540;8.390;2022-07-18T02:30:08;20.20;55.40
4695;DHT22;2361;49.540;8.390;2022-07-18T02:32:36;20.20;55.30
4695;DHT22;2361;49.540;8.390;2022-07-18T02:35:08;20.10;55.50
4695;DHT22;2361;49.540;8.390;2022-07-18T02:37:36;20.10;55.40
4695;DHT22;2361;49.540;8.390;2022-07-18T02:40:07;20.10;55.70
4695;DHT22;2361;49.540;8.390;2022-07-18T02:42:35;20.00;55.60
4695;DHT22;2361;49.540;8.390;2022-07-18T02:45:07;20.00;55.70
4695;DHT22;2361;49.540;8.390;2022-07-18T02:47:35;19.90;55.70
4695;DHT22;2361;49.540;8.390;2022-07-18T02:50:02;19.90;55.80
4695;DHT22;2361;49.540;8.390;2022-07-18T02:52:30;19.80;56.20
4695;DHT22;2361;49.540;8.390;2022-07-18T02:54:57;19.70;56.40
4695;DHT22;2361;49.540;8.390;2022-07-18T02:57:27;19.70;56.60
4695;DHT22;2361;49.540;8.390;2022-07-18T02:59:55;19.70;56.60
4695;DHT22;2361;49.540;8.390;2022-07-18T03:02:21;19.70;56.70
4695;DHT22;2361;49.540;8.390;2022-07-18T03:04:48;19.70;56.80
4695;DHT22;2361;49.540;8.390;2022-07-18T03:07:16;19.70;57.00
4695;DHT22;2361;49.540;8.390;2022-07-18T03:09:43;19.70;56.90
4695;DHT22;2361;49.540;8.390;2022-07-18T03:12:10;19.80;56.90
4695;DHT22;2361;49.540;8.390;2022-07-18T03:14:37;19.70;56.90
4695;DHT22;2361;49.540;8.390;2022-07-18T03:17:03;19.60;57.00
4695;DHT22;2361;49.540;8.390;2022-07-18T03:19:31;19.50;57.10
4695;DHT22;2361;49.540;8.390;2022-07-18T03:21:58;19.50;57.40
4695;DHT22;2361;49.540;8.390;2022-07-18T03:24:24;19.50;57.40
4695;DHT22;2361;49.540;8.390;2022-07-18T03:26:51;19.50;57.60
4695;DHT22;2361;49.540;8.390;2022-07-18T03:29:18;19.40;57.50
4695;DHT22;2361;49.540;8.390;2022-07-18T03:31:45;19.30;57.80
4695;DHT22;2361;49.540;8.390;2022-07-18T03:34:12;19.30;57.90
4695;DHT22;2361;49.540;8.390;2022-07-18T03:36:39;19.20;57.90
4695;DHT22;2361;49.540;8.390;2022-07-18T03:39:08;19.30;58.00
4695;DHT22;2361;49.540;8.390;2022-07-18T03:41:36;19.20;58.10
4695;DHT22;2361;49.540;8.390;2022-07-18T03:44:04;19.20;58.30
4695;DHT22;2361;49.540;8.390;2022-07-18T03:46:32;19.20;58.40
4695;DHT22;2361;49.540;8.390;2022-07-18T03:48:59;19.20;58.40
4695;DHT22;2361;49.540;8.390;2022-07-18T03:51:27;19.20;58.40
4695;DHT22;2361;49.540;8.390;2022-07-18T03:53:54;19.30;58.40
4695;DHT22;2361;49.540;8.390;2022-07-18T03:56:21;19.30;58.30
4695;DHT22;2361;49.540;8.390;2022-07-18T03:58:48;19.40;58.20
4695;DHT22;2361;49.540;8.390;2022-07-18T04:01:15;19.40;58.10
4695;DHT22;2361;49.540;8.390;2022-07-18T04:03:42;19.40;58.20
4695;DHT22;2361;49.540;8.390;2022-07-18T04:06:09;19.40;58.30
4695;DHT22;2361;49.540;8.390;2022-07-18T04:08:36;19.40;58.30
4695;DHT22;2361;49.540;8.390;2022-07-18T04:11:03;19.60;58.10
4695;DHT22;2361;49.540;8.390;2022-07-18T04:13:30;19.70;57.80
4695;DHT22;2361;49.540;8.390;2022-07-18T04:15:57;19.80;57.50
4695;DHT22;2361;49.540;8.390;2022-07-18T04:18:24;19.90;57.40
4695;DHT22;2361;49.540;8.390;2022-07-18T04:20:51;20.00;57.10
4695;DHT22;2361;49.540;8.390;2022-07-18T04:23:19;20.10;57.10
4695;DHT22;2361;49.540;8.390;2022-07-18T04:25:46;20.20;56.70
4695;DHT22;2361;49.540;8.390;2022-07-18T04:28:13;20.30;56.50
4695;DHT22;2361;49.540;8.390;2022-07-18T04:30:42;20.40;57.10
4695;DHT22;2361;49.540;8.390;2022-07-18T04:33:10;20.50;56.30
4695;DHT22;2361;49.540;8.390;2022-07-18T04:35:38;20.50;56.80
4695;DHT22;2361;49.540;8.390;2022-07-18T04:38:07;20.60;56.10
4695;DHT22;2361;49.540;8.390;2022-07-18T04:40:36;20.70;56.00
4695;DHT22;2361;49.540;8.390;2022-07-18T04:43:04;20.90;55.90
4695;DHT22;2361;49.540;8.390;2022-07-18T04:45:31;21.00;55.70
4695;DHT22;2361;49.540;8.390;2022-07-18T04:47:59;21.00;55.70
4695;DHT22;2361;49.540;8.390;2022-07-18T04:50:27;21.10;55.50
4695;DHT22;2361;49.540;8.390;2022-07-18T04:52:56;21.10;55.40
4695;DHT22;2361;49.540;8.390;2022-07-18T04:55:25;21.20;55.50
4695;DHT22;2361;49.540;8.390;2022-07-18T04:57:53;21.20;55.50
4695;DHT22;2361;49.540;8.390;2022-07-18T05:00:23;21.30;55.50
4695;DHT22;2361;49.540;8.390;2022-07-18T05:02:52;21.30;55.40
4695;DHT22;2361;49.540;8.390;2022-07-18T05:05:22;21.50;55.20
4695;DHT22;2361;49.540;8.390;2022-07-18T05:07:51;21.60;55.00
4695;DHT22;2361;49.540;8.390;2022-07-18T05:10:21;21.90;54.70
4695;DHT22;2361;49.540;8.390;2022-07-18T05:12:50;22.00;54.30
4695;DHT22;2361;49.540;8.390;2022-07-18T05:15:21;22.20;54.20
4695;DHT22;2361;49.540;8.390;2022-07-18T05:17:49;22.40;54.00
4695;DHT22;2361;49.540;8.390;2022-07-18T05:20:18;22.60;53.60
4695;DHT22;2361;49.540;8.390;2022-07-18T05:22:46;22.70;53.30
4695;DHT22;2361;49.540;8.390;2022-07-18T05:25:14;22.80;53.30
4695;DHT22;2361;49.540;8.390;2022-07-18T05:27:42;22.90;53.40
4695;DHT22;2361;49.540;8.390;2022-07-18T05:30:11;23.00;54.00
4695;DHT22;2361;49.540;8.390;2022-07-18T05:32:41;23.20;53.30
4695;DHT22;2361;49.540;8.390;2022-07-18T05:35:10;23.30;53.10
4695;DHT22;2361;49.540;8.390;2022-07-18T05:37:39;23.40;53.00
4695;DHT22;2361;49.540;8.390;2022-07-18T05:40:08;23.60;52.80
4695;DHT22;2361;49.540;8.390;2022-07-18T05:42:37;23.80;52.50
4695;DHT22;2361;49.540;8.390;2022-07-18T05:45:22;24.10;52.30
4695;DHT22;2361;49.540;8.390;2022-07-18T05:47:51;24.30;51.50
4695;DHT22;2361;49.540;8.390;2022-07-18T05:50:19;24.50;51.40
4695;DHT22;2361;49.540;8.390;2022-07-18T05:52:46;24.70;51.00
4695;DHT22;2361;49.540;8.390;2022-07-18T05:55:13;25.00;50.60
4695;DHT22;2361;49.540;8.390;2022-07-18T05:57:40;25.40;50.50
4695;DHT22;2361;49.540;8.390;2022-07-18T06:00:09;25.70;50.10
4695;DHT22;2361;49.540;8.390;2022-07-18T06:02:37;26.10;49.80
4695;DHT22;2361;49.540;8.390;2022-07-18T06:05:06;26.50;49.30
4695;DHT22;2361;49.540;8.390;2022-07-18T06:07:55;26.90;48.90
4695;DHT22;2361;49.540;8.390;2022-07-18T06:10:24;27.40;48.30
4695;DHT22;2361;49.540;8.390;2022-07-18T06:12:52;27.90;48.10
4695;DHT22;2361;49.540;8.390;2022-07-18T06:15:20;28.40;48.10
4695;DHT22;2361;49.540;8.390;2022-07-18T06:17:47;28.90;47.40
4695;DHT22;2361;49.540;8.390;2022-07-18T06:20:14;29.50;46.90
4695;DHT22;2361;49.540;8.390;2022-07-18T06:22:41;30.00;46.10
4695;DHT22;2361;49.540;8.390;2022-07-18T06:25:08;30.10;45.70
4695;DHT22;2361;49.540;8.390;2022-07-18T06:27:35;30.60;45.40
4695;DHT22;2361;49.540;8.390;2022-07-18T06:30:04;31.00;44.80
4695;DHT22;2361;49.540;8.390;2022-07-18T06:32:31;31.40;44.50
4695;DHT22;2361;49.540;8.390;2022-07-18T06:34:58;31.60;44.10
4695;DHT22;2361;49.540;8.390;2022-07-18T06:37:25;31.60;44.00
4695;DHT22;2361;49.540;8.390;2022-07-18T06:39:52;31.60;43.70
4695;DHT22;2361;49.540;8.390;2022-07-18T06:42:19;32.20;43.60
4695;DHT22;2361;49.540;8.390;2022-07-18T06:44:46;32.70;42.90
4695;DHT22;2361;49.540;8.390;2022-07-18T06:47:13;33.00;41.90
4695;DHT22;2361;49.540;8.390;2022-07-18T06:49:40;33.00;42.30
4695;DHT22;2361;49.540;8.390;2022-07-18T06:52:07;33.40;42.20
4695;DHT22;2361;49.540;8.390;2022-07-18T06:54:38;33.90;41.50
4695;DHT22;2361;49.540;8.390;2022-07-18T06:57:07;34.50;40.30
4695;DHT22;2361;49.540;8.390;2022-07-18T06:59:35;35.20;40.10
4695;DHT22;2361;49.540;8.390;2022-07-18T07:02:03;35.50;40.00
4695;DHT22;2361;49.540;8.390;2022-07-18T07:04:31;36.00;39.80
4695;DHT22;2361;49.540;8.390;2022-07-18T07:06:58;36.40;39.20
4695;DHT22;2361;49.540;8.390;2022-07-18T07:09:25;36.90;38.90
4695;DHT22;2361;49.540;8.390;2022-07-18T07:11:52;37.30;39.00
4695;DHT22;2361;49.540;8.390;2022-07-18T07:14:19;37.70;38.90
4695;DHT22;2361;49.540;8.390;2022-07-18T07:16:46;37.80;39.10
4695;DHT22;2361;49.540;8.390;2022-07-18T07:19:13;38.00;39.10
4695;DHT22;2361;49.540;8.390;2022-07-18T07:21:40;37.90;38.90
4695;DHT22;2361;49.540;8.390;2022-07-18T07:24:07;38.10;38.90
4695;DHT22;2361;49.540;8.390;2022-07-18T07:26:34;38.40;38.80
4695;DHT22;2361;49.540;8.390;2022-07-18T07:29:01;38.60;38.60
4695;DHT22;2361;49.540;8.390;2022-07-18T07:31:28;37.70;38.60
4695;DHT22;2361;49.540;8.390;2022-07-18T07:33:56;37.70;38.30
4695;DHT22;2361;49.540;8.390;2022-07-18T07:36:29;37.40;38.30
4695;DHT22;2361;49.540;8.390;2022-07-18T07:38:56;37.00;38.10
4695;DHT22;2361;49.540;8.390;2022-07-18T07:41:23;36.80;38.30
4695;DHT22;2361;49.540;8.390;2022-07-18T07:43:51;36.30;38.70
4695;DHT22;2361;49.540;8.390;2022-07-18T07:46:17;36.30;38.80
4695;DHT22;2361;49.540;8.390;2022-07-18T07:48:45;36.20;38.90
4695;DHT22;2361;49.540;8.390;2022-07-18T07:51:14;36.10;38.90
4695;DHT22;2361;49.540;8.390;2022-07-18T07:53:41;35.90;38.90
4695;DHT22;2361;49.540;8.390;2022-07-18T07:56:08;36.00;39.00
4695;DHT22;2361;49.540;8.390;2022-07-18T07:58:35;35.70;39.00
4695;DHT22;2361;49.540;8.390;2022-07-18T08:01:02;35.50;39.60
4695;DHT22;2361;49.540;8.390;2022-07-18T08:03:29;34.80;39.10
4695;DHT22;2361;49.540;8.390;2022-07-18T08:05:57;34.10;39.20
4695;DHT22;2361;49.540;8.390;2022-07-18T08:08:24;33.40;39.50
4695;DHT22;2361;49.540;8.390;2022-07-18T08:10:52;32.80;40.20
4695;DHT22;2361;49.540;8.390;2022-07-18T08:13:20;32.90;40.60
4695;DHT22;2361;49.540;8.390;2022-07-18T08:15:47;32.90;40.80
4695;DHT22;2361;49.540;8.390;2022-07-18T08:18:14;32.90;41.00
4695;DHT22;2361;49.540;8.390;2022-07-18T08:20:41;32.80;41.10
4695;DHT22;2361;49.540;8.390;2022-07-18T08:23:09;32.80;41.50
4695;DHT22;2361;49.540;8.390;2022-07-18T08:25:42;32.70;41.50
4695;DHT22;2361;49.540;8.390;2022-07-18T08:28:10;32.60;41.10
4695;DHT22;2361;49.540;8.390;2022-07-18T08:30:38;32.10;41.50
4695;DHT22;2361;49.540;8.390;2022-07-18T08:33:06;32.10;41.30
4695;DHT22;2361;49.540;8.390;2022-07-18T08:35:34;32.20;41.50
4695;DHT22;2361;49.540;8.390;2022-07-18T08:38:02;32.00;42.10
4695;DHT22;2361;49.540;8.390;2022-07-18T08:40:30;31.90;41.40
4695;DHT22;2361;49.540;8.390;2022-07-18T08:42:58;31.90;39.90
4695;DHT22;2361;49.540;8.390;2022-07-18T08:45:46;32.00;39.50
4695;DHT22;2361;49.540;8.390;2022-07-18T08:48:17;32.10;39.40
4695;DHT22;2361;49.540;8.390;2022-07-18T08:50:46;32.10;39.70
4695;DHT22;2361;49.540;8.390;2022-07-18T08:53:14;31.80;39.70
4695;DHT22;2361;49.540;8.390;2022-07-18T08:55:46;31.70;39.80
4695;DHT22;2361;49.540;8.390;2022-07-18T08:58:14;31.70;40.00
4695;DHT22;2361;49.540;8.390;2022-07-18T09:01:04;31.90;39.90
4695;DHT22;2361;49.540;8.390;2022-07-18T09:03:31;31.90;40.30
4695;DHT22;2361;49.540;8.390;2022-07-18T09:06:06;31.80;40.30
4695;DHT22;2361;49.540;8.390;2022-07-18T09:08:39;31.70;40.60
4695;DHT22;2361;49.540;8.390;2022-07-18T09:11:11;31.80;40.60
4695;DHT22;2361;49.540;8.390;2022-07-18T09:13:58;31.90;40.60
4695;DHT22;2361;49.540;8.390;2022-07-18T09:16:26;32.10;40.60
4695;DHT22;2361;49.540;8.390;2022-07-18T09:18:54;32.00;40.00
4695;DHT22;2361;49.540;8.390;2022-07-18T09:21:23;32.10;40.40
4695;DHT22;2361;49.540;8.390;2022-07-18T09:23:52;32.10;40.30
4695;DHT22;2361;49.540;8.390;2022-07-18T09:26:39;32.00;40.30
4695;DHT22;2361;49.540;8.390;2022-07-18T09:29:13;32.10;40.00
4695;DHT22;2361;49.540;8.390;2022-07-18T09:31:53;32.30;39.10
4695;DHT22;2361;49.540;8.390;2022-07-18T09:34:35;32.50;38.90
4695;DHT22;2361;49.540;8.390;2022-07-18T09:37:03;32.60;39.10
4695;DHT22;2361;49.540;8.390;2022-07-18T09:39:31;32.70;38.90
4695;DHT22;2361;49.540;8.390;2022-07-18T09:42:17;32.80;38.80
4695;DHT22;2361;49.540;8.390;2022-07-18T09:44:58;32.80;38.90
4695;DHT22;2361;49.540;8.390;2022-07-18T09:47:26;33.00;38.50
4695;DHT22;2361;49.540;8.390;2022-07-18T09:49:53;33.00;38.30
4695;DHT22;2361;49.540;8.390;2022-07-18T09:52:21;32.90;37.30
4695;DHT22;2361;49.540;8.390;2022-07-18T09:54:49;32.70;36.80
4695;DHT22;2361;49.540;8.390;2022-07-18T09:57:26;32.60;37.10
4695;DHT22;2361;49.540;8.390;2022-07-18T09:59:54;32.50;37.40
4695;DHT22;2361;49.540;8.390;2022-07-18T10:02:22;32.80;37.50
4695;DHT22;2361;49.540;8.390;2022-07-18T10:04:50;33.10;37.60
4695;DHT22;2361;49.540;8.390;2022-07-18T10:07:17;33.30;36.50
4695;DHT22;2361;49.540;8.390;2022-07-18T10:09:45;33.40;35.50
4695;DHT22;2361;49.540;8.390;2022-07-18T10:12:15;33.50;36.30
4695;DHT22;2361;49.540;8.390;2022-07-18T10:14:43;33.40;36.50
4695;DHT22;2361;49.540;8.390;2022-07-18T10:17:11;33.40;36.10
4695;DHT22;2361;49.540;8.390;2022-07-18T10:19:38;33.40;36.70
4695;DHT22;2361;49.540;8.390;2022-07-18T10:22:07;33.10;35.10
4695;DHT22;2361;49.540;8.390;2022-07-18T10:24:38;33.10;35.20
4695;DHT22;2361;49.540;8.390;2022-07-18T10:27:20;33.00;35.10
4695;DHT22;2361;49.540;8.390;2022-07-18T10:30:10;33.00;35.10
4695;DHT22;2361;49.540;8.390;2022-07-18T10:32:38;32.80;35.00
4695;DHT22;2361;49.540;8.390;2022-07-18T10:35:06;32.70;35.10
4695;DHT22;2361;49.540;8.390;2022-07-18T10:37:35;32.40;34.90
4695;DHT22;2361;49.540;8.390;2022-07-18T10:40:25;32.20;35.20
4695;DHT22;2361;49.540;8.390;2022-07-18T10:45:57;32.10;35.60
4695;DHT22;2361;49.540;8.390;2022-07-18T10:51:11;31.90;35.80
4695;DHT22;2361;49.540;8.390;2022-07-18T10:54:02;31.90;35.90
4695;DHT22;2361;49.540;8.390;2022-07-18T11:01:49;32.00;35.80
4695;DHT22;2361;49.540;8.390;2022-07-18T11:04:29;32.10;35.40
4695;DHT22;2361;49.540;8.390;2022-07-18T11:07:06;32.20;35.80
4695;DHT22;2361;49.540;8.390;2022-07-18T11:09:39;32.30;35.90
4695;DHT22;2361;49.540;8.390;2022-07-18T11:12:21;32.30;36.00
4695;DHT22;2361;49.540;8.390;2022-07-18T11:15:06;32.30;35.80
4695;DHT22;2361;49.540;8.390;2022-07-18T11:17:55;32.30;35.60
4695;DHT22;2361;49.540;8.390;2022-07-18T11:20:34;32.30;35.70
4695;DHT22;2361;49.540;8.390;2022-07-18T11:23:13;32.30;36.20
4695;DHT22;2361;49.540;8.390;2022-07-18T11:25:40;32.50;36.20
4695;DHT22;2361;49.540;8.390;2022-07-18T11:28:24;32.60;35.80
4695;DHT22;2361;49.540;8.390;2022-07-18T11:31:04;32.70;35.70
4695;DHT22;2361;49.540;8.390;2022-07-18T11:33:36;32.70;35.80
4695;DHT22;2361;49.540;8.390;2022-07-18T11:36:10;32.70;35.60
4695;DHT22;2361;49.540;8.390;2022-07-18T11:38:49;32.70;35.40
4695;DHT22;2361;49.540;8.390;2022-07-18T11:41:23;32.50;35.60
4695;DHT22;2361;49.540;8.390;2022-07-18T11:43:52;32.50;35.00
4695;DHT22;2361;49.540;8.390;2022-07-18T11:46:22;32.40;35.00
4695;DHT22;2361;49.540;8.390;2022-07-18T11:49:04;32.20;35.50
4695;DHT22;2361;49.540;8.390;2022-07-18T11:51:50;32.00;35.70
4695;DHT22;2361;49.540;8.390;2022-07-18T11:54:22;31.90;35.80
4695;DHT22;2361;49.540;8.390;2022-07-18T11:56:52;31.90;36.20
4695;DHT22;2361;49.540;8.390;2022-07-18T11:59:21;31.90;35.90
4695;DHT22;2361;49.540;8.390;2022-07-18T12:01:48;32.00;36.20
4695;DHT22;2361;49.540;8.390;2022-07-18T12:04:23;32.00;36.10
4695;DHT22;2361;49.540;8.390;2022-07-18T12:07:25;31.90;36.20
4695;DHT22;2361;49.540;8.390;2022-07-18T12:09:53;31.90;35.90
4695;DHT22;2361;49.540;8.390;2022-07-18T12:12:22;31.80;36.10
4695;DHT22;2361;49.540;8.390;2022-07-18T12:14:57;31.70;36.10
4695;DHT22;2361;49.540;8.390;2022-07-18T12:17:29;31.70;36.30
4695;DHT22;2361;49.540;8.390;2022-07-18T12:20:29;31.60;36.10
4695;DHT22;2361;49.540;8.390;2022-07-18T12:23:09;31.60;36.10
4695;DHT22;2361;49.540;8.390;2022-07-18T12:25:41;31.60;36.20
4695;DHT22;2361;49.540;8.390;2022-07-18T12:28:17;31.60;36.80
4695;DHT22;2361;49.540;8.390;2022-07-18T12:30:45;31.60;36.10
4695;DHT22;2361;49.540;8.390;2022-07-18T12:33:13;31.60;36.20
4695;DHT22;2361;49.540;8.390;2022-07-18T12:35:40;31.70;36.30
4695;DHT22;2361;49.540;8.390;2022-07-18T12:38:17;31.70;36.30
4695;DHT22;2361;49.540;8.390;2022-07-18T12:40:56;31.60;36.20
4695;DHT22;2361;49.540;8.390;2022-07-18T12:43:29;31.70;36.50
4695;DHT22;2361;49.540;8.390;2022-07-18T12:46:00;31.70;36.20
4695;DHT22;2361;49.540;8.390;2022-07-18T12:48:30;31.70;36.20
4695;DHT22;2361;49.540;8.390;2022-07-18T12:51:04;31.80;36.20
4695;DHT22;2361;49.540;8.390;2022-07-18T12:53:38;31.90;36.00
4695;DHT22;2361;49.540;8.390;2022-07-18T12:56:06;31.90;35.90
4695;DHT22;2361;49.540;8.390;2022-07-18T12:58:34;31.80;36.30
4695;DHT22;2361;49.540;8.390;2022-07-18T13:01:01;31.80;36.10
4695;DHT22;2361;49.540;8.390;2022-07-18T13:03:34;31.80;36.30
4695;DHT22;2361;49.540;8.390;2022-07-18T13:06:01;31.80;36.20
4695;DHT22;2361;49.540;8.390;2022-07-18T13:08:28;31.80;36.20
4695;DHT22;2361;49.540;8.390;2022-07-18T13:10:55;31.90;36.30
4695;DHT22;2361;49.540;8.390;2022-07-18T13:13:22;31.80;36.90
4695;DHT22;2361;49.540;8.390;2022-07-18T13:15:49;31.70;36.50
4695;DHT22;2361;49.540;8.390;2022-07-18T13:18:16;31.70;36.80
4695;DHT22;2361;49.540;8.390;2022-07-18T13:20:43;31.70;37.10
4695;DHT22;2361;49.540;8.390;2022-07-18T13:23:10;31.80;36.40
4695;DHT22;2361;49.540;8.390;2022-07-18T13:25:38;31.90;36.00
4695;DHT22;2361;49.540;8.390;2022-07-18T13:28:05;31.90;36.00
4695;DHT22;2361;49.540;8.390;2022-07-18T13:30:33;32.00;36.20
4695;DHT22;2361;49.540;8.390;2022-07-18T13:33:00;31.90;36.00
4695;DHT22;2361;49.540;8.390;2022-07-18T13:35:27;31.90;36.20
4695;DHT22;2361;49.540;8.390;2022-07-18T13:37:54;31.90;36.20
4695;DHT22;2361;49.540;8.390;2022-07-18T13:40:21;31.90;36.30
4695;DHT22;2361;49.540;8.390;2022-07-18T13:42:54;31.90;36.00
4695;DHT22;2361;49.540;8.390;2022-07-18T13:45:20;32.00;36.30
4695;DHT22;2361;49.540;8.390;2022-07-18T13:47:49;32.00;36.00
4695;DHT22;2361;49.540;8.390;2022-07-18T13:50:16;32.00;36.10
4695;DHT22;2361;49.540;8.390;2022-07-18T13:52:43;32.00;36.50
4695;DHT22;2361;49.540;8.390;2022-07-18T13:55:11;32.00;36.30
4695;DHT22;2361;49.540;8.390;2022-07-18T13:57:38;32.00;36.40
4695;DHT22;2361;49.540;8.390;2022-07-18T14:00:06;32.00;36.30
4695;DHT22;2361;49.540;8.390;2022-07-18T14:02:35;31.90;36.50
4695;DHT22;2361;49.540;8.390;2022-07-18T14:05:03;31.90;36.60
4695;DHT22;2361;49.540;8.390;2022-07-18T14:07:43;31.90;36.60
4695;DHT22;2361;49.540;8.390;2022-07-18T14:10:12;31.90;36.70
4695;DHT22;2361;49.540;8.390;2022-07-18T14:12:41;31.90;36.80
4695;DHT22;2361;49.540;8.390;2022-07-18T14:15:09;31.80;36.70
4695;DHT22;2361;49.540;8.390;2022-07-18T14:17:36;31.80;36.80
4695;DHT22;2361;49.540;8.390;2022-07-18T14:20:04;31.80;37.00
4695;DHT22;2361;49.540;8.390;2022-07-18T14:22:34;31.80;36.90
4695;DHT22;2361;49.540;8.390;2022-07-18T14:25:04;31.80;36.70
4695;DHT22;2361;49.540;8.390;2022-07-18T14:27:32;31.80;37.20
4695;DHT22;2361;49.540;8.390;2022-07-18T14:30:00;31.80;36.90
4695;DHT22;2361;49.540;8.390;2022-07-18T14:32:27;31.80;36.90
4695;DHT22;2361;49.540;8.390;2022-07-18T14:34:54;31.80;36.90
4695;DHT22;2361;49.540;8.390;2022-07-18T14:37:22;31.80;36.90
4695;DHT22;2361;49.540;8.390;2022-07-18T14:39:50;31.80;36.80
4695;DHT22;2361;49.540;8.390;2022-07-18T14:42:23;31.90;36.70
4695;DHT22;2361;49.540;8.390;2022-07-18T14:44:52;31.90;36.60
4695;DHT22;2361;49.540;8.390;2022-07-18T14:47:19;31.90;36.80
4695;DHT22;2361;49.540;8.390;2022-07-18T14:49:49;32.00;36.70
4695;DHT22;2361;49.540;8.390;2022-07-18T14:52:16;32.00;36.50
4695;DHT22;2361;49.540;8.390;2022-07-18T14:54:43;32.00;36.70
4695;DHT22;2361;49.540;8.390;2022-07-18T14:57:10;32.00;36.90
4695;DHT22;2361;49.540;8.390;2022-07-18T14:59:39;32.00;36.80
4695;DHT22;2361;49.540;8.390;2022-07-18T15:02:06;32.00;36.80
4695;DHT22;2361;49.540;8.390;2022-07-18T15:04:34;32.10;36.90
4695;DHT22;2361;49.540;8.390;2022-07-18T15:07:03;32.10;36.40
4695;DHT22;2361;49.540;8.390;2022-07-18T15:09:30;32.20;36.50
4695;DHT22;2361;49.540;8.390;2022-07-18T15:12:00;32.10;36.50
4695;DHT22;2361;49.540;8.390;2022-07-18T15:14:28;32.00;36.30
4695;DHT22;2361;49.540;8.390;2022-07-18T15:16:55;32.00;36.60
4695;DHT22;2361;49.540;8.390;2022-07-18T15:19:22;31.90;37.10
4695;DHT22;2361;49.540;8.390;2022-07-18T15:21:49;31.70;38.30
4695;DHT22;2361;49.540;8.390;2022-07-18T15:24:16;31.60;37.50
4695;DHT22;2361;49.540;8.390;2022-07-18T15:26:43;31.60;37.20
4695;DHT22;2361;49.540;8.390;2022-07-18T15:29:10;31.80;36.80
4695;DHT22;2361;49.540;8.390;2022-07-18T15:31:37;31.80;36.70
4695;DHT22;2361;49.540;8.390;2022-07-18T15:34:04;31.80;36.90
4695;DHT22;2361;49.540;8.390;2022-07-18T15:36:31;31.70;37.40
4695;DHT22;2361;49.540;8.390;2022-07-18T15:38:58;31.70;37.40
4695;DHT22;2361;49.540;8.390;2022-07-18T15:41:25;31.70;37.40
4695;DHT22;2361;49.540;8.390;2022-07-18T15:43:52;31.70;37.20
4695;DHT22;2361;49.540;8.390;2022-07-18T15:46:23;31.60;37.50
4695;DHT22;2361;49.540;8.390;2022-07-18T15:48:51;31.60;37.60
4695;DHT22;2361;49.540;8.390;2022-07-18T15:51:18;31.60;37.80
4695;DHT22;2361;49.540;8.390;2022-07-18T15:53:45;31.60;37.80
4695;DHT22;2361;49.540;8.390;2022-07-18T15:56:12;31.60;37.70
4695;DHT22;2361;49.540;8.390;2022-07-18T15:58:39;31.60;37.60
4695;DHT22;2361;49.540;8.390;2022-07-18T16:01:06;31.70;37.70
4695;DHT22;2361;49.540;8.390;2022-07-18T16:03:33;31.80;37.70
4695;DHT22;2361;49.540;8.390;2022-07-18T16:06:00;31.80;37.60
4695;DHT22;2361;49.540;8.390;2022-07-18T16:08:27;31.80;38.10
4695;DHT22;2361;49.540;8.390;2022-07-18T16:10:54;31.80;37.50
4695;DHT22;2361;49.540;8.390;2022-07-18T16:13:22;31.80;37.40
4695;DHT22;2361;49.540;8.390;2022-07-18T16:15:50;31.80;37.40
4695;DHT22;2361;49.540;8.390;2022-07-18T16:18:17;31.80;37.50
4695;DHT22;2361;49.540;8.390;2022-07-18T16:20:44;31.80;37.50
4695;DHT22;2361;49.540;8.390;2022-07-18T16:23:12;31.80;37.80
4695;DHT22;2361;49.540;8.390;2022-07-18T16:25:39;31.70;38.10
4695;DHT22;2361;49.540;8.390;2022-07-18T16:28:07;31.80;37.70